sensor_id;sensor_type;location;lat;lon;timestamp;pressure;altitude;pressure_sealevel;temperature;humidity
10470;BME280;5282;47.052;15.458;2023-02-02T00:01:00;97525.47;;;4.32;70.68
10470;BME280;5282;47.052;15.458;2023-02-02T00:03:27;97523.53;;;4.35;70.95
10470;BME280;5282;47.052;15.458;2023-02-02T00:05:56;97528.13;;;4.32;71.57
10470;BME280;5282;47.052;15.458;2023-02-02T00:08:23;97513.78;;;4.45;72.46
10470;BME280;5282;47.052;15.458;2023-02-02T00:10:50;97502.19;;;4.35;72.57
10470;BME280;5282;47.052;15.458;2023-02-02T00:13:17;97499.91;;;4.30;76.07
10470;BME280;5282;47.052;15.458;2023-02-02T00:15:44;97503.31;;;4.32;76.65
10470;BME280;5282;47.052;15.458;2023-02-02T00:18:12;97500.69;;;4.21;80.40
10470;BME280;5282;47.052;15.458;2023-02-02T00:20:39;97494.16;;;4.25;79.49
10470;BME280;5282;47.052;15.458;2023-02-02T00:23:08;97491.97;;;4.19;79.99
10470;BME280;5282;47.052;15.458;2023-02-02T00:25:35;97488.19;;;4.00;83.28
10470;BME280;5282;47.052;15.458;2023-02-02T00:28:02;97500.28;;;4.04;75.64
10470;BME280;5282;47.052;15.458;2023-02-02T00:30:30;97503.56;;;4.08;78.62
10470;BME280;5282;47.052;15.458;2023-02-02T00:32:59;97502.16;;;4.25;71.47
10470;BME280;5282;47.052;15.458;2023-02-02T00:35:26;97506.88;;;4.42;68.07
10470;BME280;5282;47.052;15.458;2023-02-02T00:37:53;97505.47;;;4.59;65.44
10470;BME280;5282;47.052;15.458;2023-02-02T00:40:21;97505.91;;;4.65;64.91
10470;BME280;5282;47.052;15.458;2023-02-02T00:42:48;97501.59;;;4.73;63.51
10470;BME280;5282;47.052;15.458;2023-02-02T00:45:15;97501.91;;;4.80;62.26
10470;BME280;5282;47.052;15.458;2023-02-02T00:47:43;97499.97;;;4.82;62.60
10470;BME280;5282;47.052;15.458;2023-02-02T00:50:14;97495.09;;;4.87;62.19
10470;BME280;5282;47.052;15.458;2023-02-02T00:52:42;97496.97;;;4.97;61.43
10470;BME280;5282;47.052;15.458;2023-02-02T00:55:10;97494.28;;;4.97;61.36
10470;BME280;5282;47.052;15.458;2023-02-02T00:57:39;97495.00;;;4.99;60.92
10470;BME280;5282;47.052;15.458;2023-02-02T01:00:12;97487.00;;;4.99;61.23
10470;BME280;5282;47.052;15.458;2023-02-02T01:02:40;97481.38;;;5.02;60.72
10470;BME280;5282;47.052;15.458;2023-02-02T01:05:08;97483.78;;;5.05;60.42
10470;BME280;5282;47.052;15.458;2023-02-02T01:07:35;97481.84;;;5.07;60.40
10470;BME280;5282;47.052;15.458;2023-02-02T01:10:02;97482.47;;;5.30;58.69
10470;BME280;5282;47.052;15.458;2023-02-02T01:12:29;97482.47;;;5.30;58.79
10470;BME280;5282;47.052;15.458;2023-02-02T01:14:57;97484.31;;;5.30;58.86
10470;BME280;5282;47.052;15.458;2023-02-02T01:17:24;97491.88;;;5.24;59.38
10470;BME280;5282;47.052;15.458;2023-02-02T01:19:53;97493.13;;;5.20;59.69
10470;BME280;5282;47.052;15.458;2023-02-02T01:22:23;97497.75;;;5.18;59.61
10470;BME280;5282;47.052;15.458;2023-02-02T01:24:50;97478.41;;;5.26;59.10
10470;BME280;5282;47.052;15.458;2023-02-02T01:27:17;97496.94;;;5.28;59.16
10470;BME280;5282;47.052;15.458;2023-02-02T01:29:44;97504.66;;;5.21;60.05
10470;BME280;5282;47.052;15.458;2023-02-02T01:32:15;97494.81;;;5.21;60.51
10470;BME280;5282;47.052;15.458;2023-02-02T01:34:42;97503.25;;;5.17;61.38
10470;BME280;5282;47.052;15.458;2023-02-02T01:37:09;97498.16;;;5.14;61.63
10470;BME280;5282;47.052;15.458;2023-02-02T01:39:40;97486.63;;;5.13;62.25
10470;BME280;5282;47.052;15.458;2023-02-02T01:42:11;97478.47;;;5.05;63.42
10470;BME280;5282;47.052;15.458;2023-02-02T01:47:49;97462.69;;;5.02;64.06
10470;BME280;5282;47.052;15.458;2023-02-02T01:50:22;97465.66;;;4.99;64.60
10470;BME280;5282;47.052;15.458;2023-02-02T01:52:51;97463.81;;;4.99;65.13
10470;BME280;5282;47.052;15.458;2023-02-02T01:55:21;97475.94;;;5.03;65.21
10470;BME280;5282;47.052;15.458;2023-02-02T01:57:51;97480.69;;;5.00;66.00
10470;BME280;5282;47.052;15.458;2023-02-02T02:00:20;97467.34;;;5.00;66.44
10470;BME280;5282;47.052;15.458;2023-02-02T02:02:52;97463.97;;;4.98;66.74
10470;BME280;5282;47.052;15.458;2023-02-02T02:05:26;97457.06;;;4.95;67.62
10470;BME280;5282;47.052;15.458;2023-02-02T02:08:01;97462.69;;;4.92;67.97
10470;BME280;5282;47.052;15.458;2023-02-02T02:10:30;97458.44;;;4.89;68.32
10470;BME280;5282;47.052;15.458;2023-02-02T02:12:57;97463.91;;;4.88;68.61
10470;BME280;5282;47.052;15.458;2023-02-02T02:15:25;97456.78;;;4.88;68.07
10470;BME280;5282;47.052;15.458;2023-02-02T02:18:20;97459.69;;;4.85;68.97
10470;BME280;5282;47.052;15.458;2023-02-02T02:21:14;97448.06;;;4.86;69.04
10470;BME280;5282;47.052;15.458;2023-02-02T02:24:31;97456.78;;;4.88;69.47
10470;BME280;5282;47.052;15.458;2023-02-02T02:27:37;97440.44;;;4.82;70.31
10470;BME280;5282;47.052;15.458;2023-02-02T02:30:31;97453.91;;;4.80;70.24
10470;BME280;5282;47.052;15.458;2023-02-02T02:33:04;97450.66;;;4.76;71.63
10470;BME280;5282;47.052;15.458;2023-02-02T02:35:36;97454.88;;;4.79;71.16
10470;BME280;5282;47.052;15.458;2023-02-02T02:38:10;97448.72;;;4.78;71.55
10470;BME280;5282;47.052;15.458;2023-02-02T02:40:46;97443.22;;;4.80;70.96
10470;BME280;5282;47.052;15.458;2023-02-02T02:43:18;97443.69;;;4.85;70.46
10470;BME280;5282;47.052;15.458;2023-02-02T02:45:47;97442.00;;;4.84;71.43
10470;BME280;5282;47.052;15.458;2023-02-02T02:48:16;97437.38;;;4.86;71.38
10470;BME280;5282;47.052;15.458;2023-02-02T02:50:43;97428.66;;;4.84;71.53
10470;BME280;5282;47.052;15.458;2023-02-02T02:53:13;97440.16;;;4.85;70.72
10470;BME280;5282;47.052;15.458;2023-02-02T02:55:45;97440.06;;;4.86;71.75
10470;BME280;5282;47.052;15.458;2023-02-02T02:58:19;97442.25;;;4.81;72.45
10470;BME280;5282;47.052;15.458;2023-02-02T03:01:00;97437.91;;;4.80;72.61
10470;BME280;5282;47.052;15.458;2023-02-02T03:03:42;97442.41;;;4.79;72.62
10470;BME280;5282;47.052;15.458;2023-02-02T03:06:18;97439.59;;;4.81;72.26
10470;BME280;5282;47.052;15.458;2023-02-02T03:08:51;97433.13;;;4.84;72.39
10470;BME280;5282;47.052;15.458;2023-02-02T03:11:22;97428.50;;;4.86;72.13
10470;BME280;5282;47.052;15.458;2023-02-02T03:13:49;97426.72;;;4.86;72.21
10470;BME280;5282;47.052;15.458;2023-02-02T03:16:16;97429.63;;;4.83;72.12
10470;BME280;5282;47.052;15.458;2023-02-02T03:18:45;97437.09;;;4.89;71.63
10470;BME280;5282;47.052;15.458;2023-02-02T03:21:12;97424.88;;;4.87;71.33
10470;BME280;5282;47.052;15.458;2023-02-02T03:23:39;97427.44;;;4.88;71.41
10470;BME280;5282;47.052;15.458;2023-02-02T03:26:06;97411.53;;;4.87;71.64
10470;BME280;5282;47.052;15.458;2023-02-02T03:28:33;97422.09;;;4.88;71.58
10470;BME280;5282;47.052;15.458;2023-02-02T03:31:00;97411.53;;;4.87;71.93
10470;BME280;5282;47.052;15.458;2023-02-02T03:33:28;97414.09;;;4.88;72.11
10470;BME280;5282;47.052;15.458;2023-02-02T03:35:57;97431.19;;;4.86;72.78
10470;BME280;5282;47.052;15.458;2023-02-02T03:38:24;97418.13;;;4.83;73.77
10470;BME280;5282;47.052;15.458;2023-02-02T03:40:51;97413.63;;;4.83;74.29
10470;BME280;5282;47.052;15.458;2023-02-02T03:43:21;97424.31;;;4.83;74.30
10470;BME280;5282;47.052;15.458;2023-02-02T03:45:54;97405.63;;;4.83;74.67
10470;BME280;5282;47.052;15.458;2023-02-02T03:48:21;97407.56;;;4.81;75.18
10470;BME280;5282;47.052;15.458;2023-02-02T03:50:48;97411.50;;;4.77;75.95
10470;BME280;5282;47.052;15.458;2023-02-02T03:53:16;97402.50;;;4.78;75.92
10470;BME280;5282;47.052;15.458;2023-02-02T03:55:43;97400.69;;;4.78;76.33
10470;BME280;5282;47.052;15.458;2023-02-02T03:58:10;97402.50;;;4.78;76.93
10470;BME280;5282;47.052;15.458;2023-02-02T04:00:37;97404.09;;;4.81;77.39
10470;BME280;5282;47.052;15.458;2023-02-02T04:03:04;97401.81;;;4.76;78.06
10470;BME280;5282;47.052;15.458;2023-02-02T04:05:32;97399.56;;;4.71;78.75
10470;BME280;5282;47.052;15.458;2023-02-02T04:07:58;97391.81;;;4.68;79.60
10470;BME280;5282;47.052;15.458;2023-02-02T04:10:27;97398.84;;;4.69;79.69
10470;BME280;5282;47.052;15.458;2023-02-02T04:12:54;97387.06;;;4.72;80.13
10470;BME280;5282;47.052;15.458;2023-02-02T04:15:21;97383.81;;;4.68;80.96
10470;BME280;5282;47.052;15.458;2023-02-02T04:17:48;97390.13;;;4.67;81.59
10470;BME280;5282;47.052;15.458;2023-02-02T04:20:15;97391.81;;;4.68;82.29
10470;BME280;5282;47.052;15.458;2023-02-02T04:22:42;97392.66;;;4.69;82.68
10470;BME280;5282;47.052;15.458;2023-02-02T04:25:09;97397.25;;;4.67;83.36
10470;BME280;5282;47.052;15.458;2023-02-02T04:27:37;97395.31;;;4.69;83.71
10470;BME280;5282;47.052;15.458;2023-02-02T04:30:04;97411.63;;;4.75;83.03
10470;BME280;5282;47.052;15.458;2023-02-02T04:32:31;97416.31;;;4.83;81.77
10470;BME280;5282;47.052;15.458;2023-02-02T04:35:00;97425.28;;;4.82;82.80
10470;BME280;5282;47.052;15.458;2023-02-02T04:37:30;97428.91;;;4.81;82.64
10470;BME280;5282;47.052;15.458;2023-02-02T04:39:57;97440.78;;;4.88;81.81
10470;BME280;5282;47.052;15.458;2023-02-02T04:42:24;97442.31;;;4.91;81.37
10470;BME280;5282;47.052;15.458;2023-02-02T04:44:52;97446.09;;;4.88;82.20
10470;BME280;5282;47.052;15.458;2023-02-02T04:47:19;97464.63;;;4.90;82.55
10470;BME280;5282;47.052;15.458;2023-02-02T04:49:46;97472.63;;;4.90;85.66
10470;BME280;5282;47.052;15.458;2023-02-02T04:52:13;97465.47;;;4.90;86.09
10470;BME280;5282;47.052;15.458;2023-02-02T04:54:40;97480.78;;;4.88;87.60
10470;BME280;5282;47.052;15.458;2023-02-02T04:57:07;97499.00;;;4.83;91.81
10470;BME280;5282;47.052;15.458;2023-02-02T04:59:33;97480.59;;;4.80;100.00
10470;BME280;5282;47.052;15.458;2023-02-02T05:02:02;97501.28;;;4.67;100.00
10470;BME280;5282;47.052;15.458;2023-02-02T05:04:29;97524.91;;;4.50;100.00
10470;BME280;5282;47.052;15.458;2023-02-02T05:06:56;97516.78;;;4.30;100.00
10470;BME280;5282;47.052;15.458;2023-02-02T05:09:25;97529.28;;;4.19;100.00
10470;BME280;5282;47.052;15.458;2023-02-02T05:11:52;97527.63;;;4.06;100.00
10470;BME280;5282;47.052;15.458;2023-02-02T05:14:19;97526.22;;;4.02;100.00
10470;BME280;5282;47.052;15.458;2023-02-02T05:16:46;97522.69;;;4.01;100.00
10470;BME280;5282;47.052;15.458;2023-02-02T05:19:15;97511.31;;;3.99;100.00
10470;BME280;5282;47.052;15.458;2023-02-02T05:21:43;97505.69;;;4.14;100.00
10470;BME280;5282;47.052;15.458;2023-02-02T05:24:10;97507.50;;;3.81;100.00
10470;BME280;5282;47.052;15.458;2023-02-02T05:26:37;97508.47;;;3.80;100.00
10470;BME280;5282;47.052;15.458;2023-02-02T05:29:04;97505.53;;;3.94;100.00
10470;BME280;5282;47.052;15.458;2023-02-02T05:31:33;97513.72;;;4.03;100.00
10470;BME280;5282;47.052;15.458;2023-02-02T05:34:00;97513.22;;;4.09;100.00
10470;BME280;5282;47.052;15.458;2023-02-02T05:36:29;97515.19;;;4.07;100.00
10470;BME280;5282;47.052;15.458;2023-02-02T05:38:56;97516.59;;;4.11;100.00
10470;BME280;5282;47.052;15.458;2023-02-02T05:41:23;97517.72;;;4.08;100.00
10470;BME280;5282;47.052;15.458;2023-02-02T05:43:50;97520.97;;;4.12;100.00
10470;BME280;5282;47.052;15.458;2023-02-02T05:46:17;97519.75;;;4.16;100.00
10470;BME280;5282;47.052;15.458;2023-02-02T05:48:44;97518.22;;;4.02;100.00
10470;BME280;5282;47.052;15.458;2023-02-02T05:51:14;97520.56;;;3.95;100.00
10470;BME280;5282;47.052;15.458;2023-02-02T05:53:43;97540.13;;;4.06;100.00
10470;BME280;5282;47.052;15.458;2023-02-02T05:56:11;97543.81;;;3.82;100.00
10470;BME280;5282;47.052;15.458;2023-02-02T05:58:38;97551.81;;;3.82;100.00
10470;BME280;5282;47.052;15.458;2023-02-02T06:01:05;97563.94;;;3.52;100.00
10470;BME280;5282;47.052;15.458;2023-02-02T06:03:32;97570.50;;;3.59;100.00
10470;BME280;5282;47.052;15.458;2023-02-02T06:05:58;97575.56;;;3.74;100.00
10470;BME280;5282;47.052;15.458;2023-02-02T06:08:26;97573.19;;;3.25;100.00
10470;BME280;5282;47.052;15.458;2023-02-02T06:10:54;97570.38;;;3.04;100.00
10470;BME280;5282;47.052;15.458;2023-02-02T06:13:21;97575.84;;;3.14;100.00
10470;BME280;5282;47.052;15.458;2023-02-02T06:15:49;97586.56;;;3.01;100.00
10470;BME280;5282;47.052;15.458;2023-02-02T06:18:15;97586.78;;;2.86;100.00
10470;BME280;5282;47.052;15.458;2023-02-02T06:20:42;97608.41;;;2.46;100.00
10470;BME280;5282;47.052;15.458;2023-02-02T06:23:11;97624.16;;;2.49;100.00
10470;BME280;5282;47.052;15.458;2023-02-02T06:25:38;97637.16;;;2.41;100.00
10470;BME280;5282;47.052;15.458;2023-02-02T06:28:07;97653.25;;;2.51;100.00
10470;BME280;5282;47.052;15.458;2023-02-02T06:30:34;97649.69;;;2.63;100.00
10470;BME280;5282;47.052;15.458;2023-02-02T06:33:01;97644.31;;;2.52;100.00
10470;BME280;5282;47.052;15.458;2023-02-02T06:35:29;97663.41;;;2.45;100.00
10470;BME280;5282;47.052;15.458;2023-02-02T06:37:56;97654.50;;;2.58;100.00
10470;BME280;5282;47.052;15.458;2023-02-02T06:40:23;97667.56;;;2.12;100.00
10470;BME280;5282;47.052;15.458;2023-02-02T06:42:57;97670.16;;;2.50;100.00
10470;BME280;5282;47.052;15.458;2023-02-02T06:45:26;97670.91;;;2.52;100.00
10470;BME280;5282;47.052;15.458;2023-02-02T06:47:53;97665.59;;;2.52;100.00
10470;BME280;5282;47.052;15.458;2023-02-02T06:50:22;97664.97;;;2.48;100.00
10470;BME280;5282;47.052;15.458;2023-02-02T06:52:49;97670.78;;;2.29;100.00
10470;BME280;5282;47.052;15.458;2023-02-02T06:55:17;97669.88;;;2.17;100.00
10470;BME280;5282;47.052;15.458;2023-02-02T06:57:44;97676.84;;;2.31;100.00
10470;BME280;5282;47.052;15.458;2023-02-02T07:00:12;97668.41;;;2.37;100.00
10470;BME280;5282;47.052;15.458;2023-02-02T07:02:43;97667.69;;;2.35;100.00
10470;BME280;5282;47.052;15.458;2023-02-02T07:05:10;97687.69;;;2.28;100.00
10470;BME280;5282;47.052;15.458;2023-02-02T07:07:37;97700.28;;;2.37;100.00
10470;BME280;5282;47.052;15.458;2023-02-02T07:10:05;97702.53;;;2.43;100.00
10470;BME280;5282;47.052;15.458;2023-02-02T07:12:32;97692.09;;;2.40;100.00
10470;BME280;5282;47.052;15.458;2023-02-02T07:14:59;97694.75;;;2.40;100.00
10470;BME280;5282;47.052;15.458;2023-02-02T07:17:26;97691.41;;;2.50;100.00
10470;BME280;5282;47.052;15.458;2023-02-02T07:19:54;97702.94;;;2.37;100.00
10470;BME280;5282;47.052;15.458;2023-02-02T07:22:21;97709.19;;;2.49;100.00
10470;BME280;5282;47.052;15.458;2023-02-02T07:24:50;97709.59;;;2.56;100.00
10470;BME280;5282;47.052;15.458;2023-02-02T07:27:17;97725.97;;;2.50;100.00
10470;BME280;5282;47.052;15.458;2023-02-02T07:29:44;97725.03;;;2.51;100.00
10470;BME280;5282;47.052;15.458;2023-02-02T07:32:11;97732.16;;;2.50;100.00
10470;BME280;5282;47.052;15.458;2023-02-02T07:34:38;97727.25;;;2.57;100.00
10470;BME280;5282;47.052;15.458;2023-02-02T07:37:08;97730.63;;;2.59;100.00
10470;BME280;5282;47.052;15.458;2023-02-02T07:39:35;97729.31;;;2.40;100.00
10470;BME280;5282;47.052;15.458;2023-02-02T07:42:02;97727.47;;;2.54;100.00
10470;BME280;5282;47.052;15.458;2023-02-02T07:44:30;97734.88;;;2.61;100.00
10470;BME280;5282;47.052;15.458;2023-02-02T07:46:56;97733.06;;;2.62;100.00
10470;BME280;5282;47.052;15.458;2023-02-02T07:49:23;97741.81;;;2.75;100.00
10470;BME280;5282;47.052;15.458;2023-02-02T07:51:50;97743.91;;;2.59;100.00
10470;BME280;5282;47.052;15.458;2023-02-02T07:54:21;97755.34;;;2.48;100.00
10470;BME280;5282;47.052;15.458;2023-02-02T07:56:48;97743.13;;;2.70;100.00
10470;BME280;5282;47.052;15.458;2023-02-02T07:59:15;97758.53;;;2.77;100.00
10470;BME280;5282;47.052;15.458;2023-02-02T08:01:42;97741.06;;;2.86;100.00
10470;BME280;5282;47.052;15.458;2023-02-02T08:04:08;97757.22;;;2.83;100.00
10470;BME280;5282;47.052;15.458;2023-02-02T08:06:36;97752.75;;;2.84;100.00
10470;BME280;5282;47.052;15.458;2023-02-02T08:09:06;97752.56;;;2.98;100.00
10470;BME280;5282;47.052;15.458;2023-02-02T08:11:35;97755.97;;;3.00;100.00
10470;BME280;5282;47.052;15.458;2023-02-02T08:14:03;97753.69;;;3.07;100.00
10470;BME280;5282;47.052;15.458;2023-02-02T08:16:31;97763.00;;;3.01;100.00
10470;BME280;5282;47.052;15.458;2023-02-02T08:18:59;97767.22;;;3.04;100.00
10470;BME280;5282;47.052;15.458;2023-02-02T08:21:26;97759.13;;;3.05;100.00
10470;BME280;5282;47.052;15.458;2023-02-02T08:23:53;97765.09;;;2.85;100.00
10470;BME280;5282;47.052;15.458;2023-02-02T08:26:22;97770.47;;;2.72;100.00
10470;BME280;5282;47.052;15.458;2023-02-02T08:28:53;97764.06;;;2.74;100.00
10470;BME280;5282;47.052;15.458;2023-02-02T08:31:22;97771.03;;;2.64;100.00
10470;BME280;5282;47.052;15.458;2023-02-02T08:33:50;97782.69;;;2.74;100.00
10470;BME280;5282;47.052;15.458;2023-02-02T08:36:19;97778.16;;;2.88;100.00
10470;BME280;5282;47.052;15.458;2023-02-02T08:38:47;97779.91;;;3.00;100.00
10470;BME280;5282;47.052;15.458;2023-02-02T08:41:15;97789.00;;;2.85;100.00
10470;BME280;5282;47.052;15.458;2023-02-02T08:43:43;97800.72;;;2.82;100.00
10470;BME280;5282;47.052;15.458;2023-02-02T08:46:14;97807.59;;;2.98;100.00
10470;BME280;5282;47.052;15.458;2023-02-02T08:48:41;97818.47;;;2.95;100.00
10470;BME280;5282;47.052;15.458;2023-02-02T08:51:10;97819.88;;;3.12;100.00
10470;BME280;5282;47.052;15.458;2023-02-02T08:53:37;97814.47;;;3.24;100.00
10470;BME280;5282;47.052;15.458;2023-02-02T08:56:08;97815.91;;;3.17;100.00
10470;BME280;5282;47.052;15.458;2023-02-02T08:58:35;97819.19;;;2.97;100.00
10470;BME280;5282;47.052;15.458;2023-02-02T09:01:03;97821.44;;;3.14;100.00
10470;BME280;5282;47.052;15.458;2023-02-02T09:03:33;97835.72;;;3.13;100.00
10470;BME280;5282;47.052;15.458;2023-02-02T09:06:03;97836.28;;;3.05;100.00
10470;BME280;5282;47.052;15.458;2023-02-02T09:08:30;97845.69;;;2.98;100.00
10470;BME280;5282;47.052;15.458;2023-02-02T09:11:03;97852.53;;;3.14;100.00
10470;BME280;5282;47.052;15.458;2023-02-02T09:13:30;97851.97;;;3.21;100.00
10470;BME280;5282;47.052;15.458;2023-02-02T09:15:58;97863.63;;;3.07;100.00
10470;BME280;5282;47.052;15.458;2023-02-02T09:18:26;97850.56;;;3.29;100.00
10470;BME280;5282;47.052;15.458;2023-02-02T09:20:58;97863.69;;;3.43;100.00
10470;BME280;5282;47.052;15.458;2023-02-02T09:23:27;97858.84;;;3.48;100.00
10470;BME280;5282;47.052;15.458;2023-02-02T09:25:54;97860.22;;;3.54;100.00
10470;BME280;5282;47.052;15.458;2023-02-02T09:28:22;97851.16;;;3.57;100.00
10470;BME280;5282;47.052;15.458;2023-02-02T09:30:48;97850.16;;;3.58;100.00
10470;BME280;5282;47.052;15.458;2023-02-02T09:33:16;97861.44;;;3.50;100.00
10470;BME280;5282;47.052;15.458;2023-02-02T09:35:42;97858.59;;;3.40;100.00
10470;BME280;5282;47.052;15.458;2023-02-02T09:38:11;97862.47;;;3.47;100.00
10470;BME280;5282;47.052;15.458;2023-02-02T09:40:39;97855.75;;;3.54;100.00
10470;BME280;5282;47.052;15.458;2023-02-02T09:43:19;97851.47;;;3.52;100.00
10470;BME280;5282;47.052;15.458;2023-02-02T09:45:54;97861.44;;;3.50;100.00
10470;BME280;5282;47.052;15.458;2023-02-02T09:48:31;97859.81;;;3.47;100.00
10470;BME280;5282;47.052;15.458;2023-02-02T09:51:02;97858.41;;;3.30;100.00
10470;BME280;5282;47.052;15.458;2023-02-02T09:53:40;97867.88;;;3.34;100.00
10470;BME280;5282;47.052;15.458;2023-02-02T09:56:13;97858.03;;;3.48;100.00
10470;BME280;5282;47.052;15.458;2023-02-02T09:58:48;97861.28;;;3.51;100.00
10470;BME280;5282;47.052;15.458;2023-02-02T10:01:20;97869.63;;;3.47;100.00
10470;BME280;5282;47.052;15.458;2023-02-02T10:03:56;97873.88;;;3.25;100.00
10470;BME280;5282;47.052;15.458;2023-02-02T10:06:29;97871.63;;;2.57;100.00
10470;BME280;5282;47.052;15.458;2023-02-02T10:09:07;97878.16;;;2.90;100.00
10470;BME280;5282;47.052;15.458;2023-02-02T10:11:44;97874.88;;;2.87;100.00
10470;BME280;5282;47.052;15.458;2023-02-02T10:14:17;97883.22;;;2.56;100.00
10470;BME280;5282;47.052;15.458;2023-02-02T10:16:48;97887.63;;;2.19;100.00
10470;BME280;5282;47.052;15.458;2023-02-02T10:19:22;97882.28;;;2.31;100.00
10470;BME280;5282;47.052;15.458;2023-02-02T10:22:01;97886.00;;;2.29;100.00
10470;BME280;5282;47.052;15.458;2023-02-02T10:24:35;97886.00;;;2.55;100.00
10470;BME280;5282;47.052;15.458;2023-02-02T10:27:03;97878.41;;;2.74;100.00
10470;BME280;5282;47.052;15.458;2023-02-02T10:29:39;97882.88;;;2.61;100.00
10470;BME280;5282;47.052;15.458;2023-02-02T10:32:14;97877.66;;;2.72;100.00
10470;BME280;5282;47.052;15.458;2023-02-02T10:34:58;97873.34;;;2.96;100.00
10470;BME280;5282;47.052;15.458;2023-02-02T10:37:30;97875.22;;;3.06;100.00
10470;BME280;5282;47.052;15.458;2023-02-02T10:40:22;97874.78;;;2.75;100.00
10470;BME280;5282;47.052;15.458;2023-02-02T10:43:05;97880.47;;;2.45;100.00
10470;BME280;5282;47.052;15.458;2023-02-02T10:46:00;97876.75;;;2.35;100.00
10470;BME280;5282;47.052;15.458;2023-02-02T10:48:32;97874.06;;;2.47;100.00
10470;BME280;5282;47.052;15.458;2023-02-02T10:51:03;97878.53;;;2.60;100.00
10470;BME280;5282;47.052;15.458;2023-02-02T10:53:32;97860.94;;;2.83;100.00
10470;BME280;5282;47.052;15.458;2023-02-02T10:56:03;97857.94;;;2.88;100.00
10470;BME280;5282;47.052;15.458;2023-02-02T10:58:37;97874.72;;;3.01;100.00
10470;BME280;5282;47.052;15.458;2023-02-02T11:01:07;97862.31;;;2.89;100.00
10470;BME280;5282;47.052;15.458;2023-02-02T11:03:38;97857.34;;;3.08;100.00
10470;BME280;5282;47.052;15.458;2023-02-02T11:06:06;97857.41;;;3.20;100.00
10470;BME280;5282;47.052;15.458;2023-02-02T11:08:52;97858.00;;;2.99;100.00
10470;BME280;5282;47.052;15.458;2023-02-02T11:11:26;97855.75;;;3.30;100.00
10470;BME280;5282;47.052;15.458;2023-02-02T11:13:58;97841.31;;;3.46;100.00
10470;BME280;5282;47.052;15.458;2023-02-02T11:16:27;97839.50;;;3.22;100.00
10470;BME280;5282;47.052;15.458;2023-02-02T11:18:55;97843.94;;;3.10;100.00
10470;BME280;5282;47.052;15.458;2023-02-02T11:21:24;97841.44;;;3.20;100.00
10470;BME280;5282;47.052;15.458;2023-02-02T11:23:54;97835.59;;;3.39;100.00
10470;BME280;5282;47.052;15.458;2023-02-02T11:26:23;97829.38;;;3.63;100.00
10470;BME280;5282;47.052;15.458;2023-02-02T11:28:53;97818.38;;;3.67;100.00
10470;BME280;5282;47.052;15.458;2023-02-02T11:31:32;97819.25;;;3.68;100.00
10470;BME280;5282;47.052;15.458;2023-02-02T11:34:15;97822.00;;;3.66;100.00
10470;BME280;5282;47.052;15.458;2023-02-02T11:37:11;97823.84;;;3.77;100.00
10470;BME280;5282;47.052;15.458;2023-02-02T11:39:39;97813.06;;;3.79;100.00
10470;BME280;5282;47.052;15.458;2023-02-02T11:42:12;97805.22;;;3.89;100.00
10470;BME280;5282;47.052;15.458;2023-02-02T11:44:42;97816.13;;;3.85;100.00
10470;BME280;5282;47.052;15.458;2023-02-02T11:47:18;97808.38;;;3.94;100.00
10470;BME280;5282;47.052;15.458;2023-02-02T11:49:46;97807.06;;;3.99;100.00
10470;BME280;5282;47.052;15.458;2023-02-02T11:52:18;97804.28;;;4.01;100.00
10470;BME280;5282;47.052;15.458;2023-02-02T11:54:49;97803.31;;;3.91;100.00
10470;BME280;5282;47.052;15.458;2023-02-02T11:57:19;97804.75;;;3.95;100.00
10470;BME280;5282;47.052;15.458;2023-02-02T11:59:49;97799.53;;;3.93;100.00
10470;BME280;5282;47.052;15.458;2023-02-02T12:02:23;97803.06;;;4.05;100.00
10470;BME280;5282;47.052;15.458;2023-02-02T12:04:51;97800.03;;;4.10;100.00
10470;BME280;5282;47.052;15.458;2023-02-02T12:07:24;97796.91;;;4.16;100.00
10470;BME280;5282;47.052;15.458;2023-02-02T12:09:52;97796.66;;;3.96;100.00
10470;BME280;5282;47.052;15.458;2023-02-02T12:12:33;97797.34;;;3.87;100.00
10470;BME280;5282;47.052;15.458;2023-02-02T12:15:10;97796.53;;;3.51;100.00
10470;BME280;5282;47.052;15.458;2023-02-02T12:17:41;97799.19;;;3.51;100.00
10470;BME280;5282;47.052;15.458;2023-02-02T12:20:15;97797.25;;;3.42;100.00
10470;BME280;5282;47.052;15.458;2023-02-02T12:23:18;97786.66;;;3.76;100.00
10470;BME280;5282;47.052;15.458;2023-02-02T12:26:04;97799.00;;;3.65;100.00
10470;BME280;5282;47.052;15.458;2023-02-02T12:29:08;97795.19;;;3.92;100.00
10470;BME280;5282;47.052;15.458;2023-02-02T12:31:48;97802.41;;;3.79;100.00
10470;BME280;5282;47.052;15.458;2023-02-02T12:34:25;97801.59;;;3.90;100.00
10470;BME280;5282;47.052;15.458;2023-02-02T12:37:01;97801.47;;;3.80;100.00
10470;BME280;5282;47.052;15.458;2023-02-02T12:39:40;97803.75;;;3.73;100.00
10470;BME280;5282;47.052;15.458;2023-02-02T12:42:35;97792.00;;;3.87;100.00
10470;BME280;5282;47.052;15.458;2023-02-02T12:45:36;97793.84;;;3.86;100.00
10470;BME280;5282;47.052;15.458;2023-02-02T12:48:17;97797.47;;;3.85;100.00
10470;BME280;5282;47.052;15.458;2023-02-02T12:50:56;97793.72;;;3.99;100.00
10470;BME280;5282;47.052;15.458;2023-02-02T12:53:38;97797.22;;;3.77;100.00
10470;BME280;5282;47.052;15.458;2023-02-02T12:56:14;97781.84;;;3.81;100.00
10470;BME280;5282;47.052;15.458;2023-02-02T12:58:54;97785.50;;;3.91;100.00
10470;BME280;5282;47.052;15.458;2023-02-02T13:01:37;97785.28;;;4.06;100.00
10470;BME280;5282;47.052;15.458;2023-02-02T13:04:36;97779.69;;;4.20;100.00
10470;BME280;5282;47.052;15.458;2023-02-02T13:07:25;97779.06;;;4.16;100.00
10470;BME280;5282;47.052;15.458;2023-02-02T13:10:07;97774.34;;;4.09;100.00
10470;BME280;5282;47.052;15.458;2023-02-02T13:12:41;97776.91;;;4.22;100.00
10470;BME280;5282;47.052;15.458;2023-02-02T13:15:12;97780.78;;;4.29;100.00
10470;BME280;5282;47.052;15.458;2023-02-02T13:17:45;97781.63;;;4.29;100.00
10470;BME280;5282;47.052;15.458;2023-02-02T13:20:21;97781.88;;;4.26;100.00
10470;BME280;5282;47.052;15.458;2023-02-02T13:22:52;97786.00;;;4.30;100.00
10470;BME280;5282;47.052;15.458;2023-02-02T13:25:24;97784.31;;;4.29;100.00
10470;BME280;5282;47.052;15.458;2023-02-02T13:27:52;97778.97;;;4.29;100.00